Heidelberg, Germany
Current Conditions -  °F | °C
As of 9:20 AM on Friday 24 Oct 2014 (Local Time) from EDFM Reporting Station
Haze Haze  
Wind Chill: 41°   Ceiling: Unl
Heat Index: 41°   Visibility: 1.2mi
Dew Point: 41°   Wind: 1mph
Humidity: 100%   Direction: NA
Pressure: 30.21"   Gusts: NA
Location:  49.4°N, 8.68°E
Report Text: EDFM 240720Z VRB01KT 2000 BR FEW000 05/05 Q1023
Loading
Personal Weather Stations






























Interactive Weather Map New forecast layout! Learn more

10-Day Weather Forecast

Advertisements
Track Severe Weather on mobile